Time;durP1;ratioP1;P1;durP2;ratioP2;P2;SDS_P1;SDS_P2;PMS_P1;PMS_P2;Temp;Humidity;BMP_temperature;BMP_pressure;BME280_temperature;BME280_humidity;BME280_pressure;Samples;Min_cycle;Max_cycle;Signal;HPM_P1;HPM_P2
2024/01/05 00:00:27;;;;;;;7.10;1.40;;;23.40;67.60;;;;;;5019519;28;20032;-77
2024/01/05 00:02:59;;;;;;;7.63;1.50;;;23.50;67.80;;;;;;5033393;28;20029;-77
2024/01/05 00:05:27;;;;;;;7.90;1.58;;;23.40;66.40;;;;;;5052584;28;20188;-79
2024/01/05 00:07:54;;;;;;;13.45;2.17;;;23.30;66.20;;;;;;5048606;28;20450;-77
2024/01/05 00:10:21;;;;;;;11.43;2.20;;;23.30;66.50;;;;;;5052044;28;20025;-78
2024/01/05 00:12:50;;;;;;;10.20;1.77;;;23.30;67.20;;;;;;5036979;28;20034;-79
2024/01/05 00:15:18;;;;;;;11.15;1.80;;;23.30;67.80;;;;;;5033833;28;20488;-76
2024/01/05 00:17:46;;;;;;;6.95;1.50;;;23.30;67.70;;;;;;5034565;28;20040;-75
2024/01/05 00:20:14;;;;;;;9.43;1.70;;;23.40;67.80;;;;;;5042040;28;20022;-77
2024/01/05 00:22:41;;;;;;;6.55;1.80;;;23.50;67.50;;;;;;5047129;28;20491;-77
2024/01/05 00:25:09;;;;;;;7.03;1.83;;;23.40;67.00;;;;;;5054448;28;20025;-80
2024/01/05 00:27:37;;;;;;;8.38;1.73;;;23.40;66.20;;;;;;5054948;28;20407;-84
2024/01/05 00:30:04;;;;;;;4.07;1.33;;;23.40;66.40;;;;;;5040504;28;20468;-76
2024/01/05 00:32:32;;;;;;;4.53;1.48;;;23.40;66.80;;;;;;5034899;28;20029;-76
2024/01/05 00:34:59;;;;;;;8.40;1.70;;;23.50;67.20;;;;;;5034843;28;20171;-76
2024/01/05 00:37:26;;;;;;;8.43;1.77;;;23.50;66.10;;;;;;5034623;28;20028;-77
2024/01/05 00:39:54;;;;;;;8.30;1.67;;;23.50;66.20;;;;;;5038768;28;20033;-77
2024/01/05 00:42:25;;;;;;;10.75;1.83;;;23.50;66.20;;;;;;5044673;28;20036;-76
2024/01/05 00:44:52;;;;;;;9.30;2.03;;;23.60;66.10;;;;;;5053070;28;20032;-76
2024/01/05 00:47:19;;;;;;;8.80;1.52;;;23.60;65.60;;;;;;5054390;28;20040;-76
2024/01/05 00:49:47;;;;;;;9.15;1.40;;;23.60;66.00;;;;;;5051091;28;20025;-80
2024/01/05 00:52:14;;;;;;;9.38;1.90;;;23.60;66.10;;;;;;5052982;28;20033;-76
2024/01/05 00:54:42;;;;;;;9.90;1.48;;;23.60;65.20;;;;;;5054283;28;20021;-76
2024/01/05 00:57:09;;;;;;;11.75;1.80;;;23.60;65.40;;;;;;5051802;28;20538;-78
2024/01/05 00:59:37;;;;;;;7.60;1.67;;;23.70;66.00;;;;;;5037420;28;20060;-77
2024/01/05 01:02:04;;;;;;;10.00;1.98;;;23.80;65.30;;;;;;5033986;28;20534;-76
2024/01/05 01:04:31;;;;;;;9.20;1.58;;;23.80;65.00;;;;;;5034037;28;20057;-76
2024/01/05 01:06:59;;;;;;;9.15;1.52;;;23.90;64.70;;;;;;5034042;28;20534;-77
2024/01/05 01:09:26;;;;;;;7.35;1.50;;;24.00;65.10;;;;;;5037227;28;20036;-84
2024/01/05 01:11:54;;;;;;;6.40;1.60;;;24.20;64.80;;;;;;5034094;28;20025;-83
2024/01/05 01:14:22;;;;;;;10.32;1.45;;;24.30;64.70;;;;;;5033049;28;20104;-81
2024/01/05 01:16:51;;;;;;;3.03;1.13;;;24.30;63.80;;;;;;5047506;28;20041;-77
2024/01/05 01:19:18;;;;;;;3.50;1.10;;;24.30;64.00;;;;;;5053924;28;20021;-80
2024/01/05 01:21:45;;;;;;;10.00;1.40;;;24.40;64.10;;;;;;5053695;28;20035;-84
2024/01/05 01:24:13;;;;;;;6.28;1.50;;;24.50;62.70;;;;;;5053347;28;20120;-77
2024/01/05 01:26:43;;;;;;;10.13;1.70;;;24.60;62.70;;;;;;5034902;28;20100;-76
2024/01/05 01:29:10;;;;;;;6.63;1.35;;;24.60;60.60;;;;;;5033821;28;20014;-76
2024/01/05 01:31:38;;;;;;;6.03;1.17;;;24.70;61.80;;;;;;5036967;28;20510;-76
2024/01/05 01:34:05;;;;;;;8.13;1.52;;;24.70;60.70;;;;;;5051236;28;20457;-78
2024/01/05 01:36:33;;;;;;;8.60;1.30;;;24.70;60.50;;;;;;5053123;28;20044;-79
2024/01/05 01:39:00;;;;;;;10.43;1.75;;;24.70;58.80;;;;;;5051270;28;20139;-77
2024/01/05 01:41:28;;;;;;;7.13;2.08;;;24.70;60.50;;;;;;5050564;28;20028;-78
2024/01/05 01:43:55;;;;;;;8.60;1.40;;;24.70;61.20;;;;;;5053024;28;20063;-76
2024/01/05 01:46:23;;;;;;;5.93;1.67;;;24.70;61.00;;;;;;5050319;28;20044;-76
2024/01/05 01:48:54;;;;;;;7.22;1.30;;;24.70;60.90;;;;;;5049977;28;20029;-83
2024/01/05 01:51:22;;;;;;;8.63;1.70;;;24.70;61.00;;;;;;5053245;28;20025;-76
2024/01/05 01:53:49;;;;;;;8.60;1.60;;;24.70;60.90;;;;;;5043641;28;20021;-77
2024/01/05 01:56:17;;;;;;;5.07;1.20;;;24.60;60.50;;;;;;5038746;28;20431;-76
2024/01/05 01:58:45;;;;;;;5.25;1.50;;;24.70;61.20;;;;;;5032271;28;20029;-77
2024/01/05 02:01:13;;;;;;;7.45;1.45;;;24.70;61.70;;;;;;5013170;28;20022;-75
2024/01/05 02:03:41;;;;;;;6.93;1.80;;;24.80;61.70;;;;;;5029690;28;20048;-76
2024/01/05 02:06:08;;;;;;;3.88;1.50;;;24.80;61.10;;;;;;5052506;28;20119;-76
2024/01/05 02:08:37;;;;;;;7.88;1.63;;;24.70;60.90;;;;;;5050810;28;20079;-82
2024/01/05 02:11:04;;;;;;;4.68;1.15;;;24.70;61.10;;;;;;5047048;28;20472;-83
2024/01/05 02:13:33;;;;;;;8.23;1.55;;;24.60;61.00;;;;;;5052667;28;20114;-76
2024/01/05 02:16:03;;;;;;;4.03;1.50;;;24.60;60.70;;;;;;5052319;28;20476;-77
2024/01/05 02:18:30;;;;;;;7.65;1.63;;;24.60;61.50;;;;;;5051228;28;20040;-83
2024/01/05 02:21:01;;;;;;;8.07;1.30;;;24.60;60.60;;;;;;5052459;28;20021;-80
2024/01/05 02:23:30;;;;;;;6.65;1.42;;;24.60;61.00;;;;;;5052607;28;20067;-82
2024/01/05 02:26:01;;;;;;;3.30;1.20;;;24.50;59.60;;;;;;5052574;28;20070;-78
2024/01/05 02:28:29;;;;;;;4.30;1.20;;;24.50;60.30;;;;;;5050728;28;20053;-83
2024/01/05 02:30:56;;;;;;;5.88;1.58;;;24.60;60.70;;;;;;5048820;28;20045;-82
2024/01/05 02:33:27;;;;;;;7.13;1.33;;;24.60;59.80;;;;;;5033116;28;20503;-81
2024/01/05 02:35:55;;;;;;;5.32;1.42;;;24.70;59.90;;;;;;5032555;28;20381;-77
2024/01/05 02:38:23;;;;;;;4.63;1.48;;;24.60;59.30;;;;;;5032319;28;20030;-82
2024/01/05 02:40:50;;;;;;;4.88;1.30;;;24.70;59.70;;;;;;5049252;28;20419;-83
2024/01/05 02:43:18;;;;;;;4.57;1.17;;;24.70;59.30;;;;;;5032763;28;20025;-78
2024/01/05 02:45:46;;;;;;;7.07;1.55;;;24.60;57.40;;;;;;5046767;28;20415;-77
2024/01/05 02:48:13;;;;;;;6.28;1.15;;;24.60;58.50;;;;;;5053092;28;20106;-77
2024/01/05 02:50:41;;;;;;;2.83;1.00;;;24.60;58.30;;;;;;5049562;28;20476;-83
2024/01/05 02:53:08;;;;;;;6.20;1.40;;;24.60;58.60;;;;;;5056288;28;20025;-79
2024/01/05 02:55:37;;;;;;;5.95;1.80;;;24.50;59.80;;;;;;5056629;28;20021;-77
2024/01/05 02:58:05;;;;;;;7.38;1.50;;;24.50;59.60;;;;;;5031754;28;20022;-80
2024/01/05 03:00:33;;;;;;;9.45;1.40;;;24.50;59.70;;;;;;5033180;28;20028;-77
2024/01/05 03:03:01;;;;;;;4.85;1.23;;;24.30;60.60;;;;;;5031355;28;20029;-81
2024/01/05 03:05:28;;;;;;;6.00;1.45;;;24.30;60.40;;;;;;5016275;28;20022;-79
2024/01/05 03:07:56;;;;;;;6.25;1.40;;;24.30;60.30;;;;;;5021644;28;20078;-77
2024/01/05 03:10:23;;;;;;;6.78;1.30;;;24.30;61.30;;;;;;5034875;28;20029;-77
2024/01/05 03:12:51;;;;;;;5.25;1.30;;;24.30;61.30;;;;;;5036180;28;20025;-77
2024/01/05 03:15:19;;;;;;;5.18;1.33;;;24.40;61.50;;;;;;5028745;28;20026;-77
2024/01/05 03:17:47;;;;;;;4.35;1.10;;;24.40;60.70;;;;;;5052365;28;20021;-82
2024/01/05 03:20:17;;;;;;;7.18;1.48;;;24.50;60.80;;;;;;5055842;28;20502;-82
2024/01/05 03:22:44;;;;;;;8.38;1.52;;;24.70;61.20;;;;;;5043171;28;20030;-80
2024/01/05 03:25:12;;;;;;;5.07;1.20;;;24.80;60.40;;;;;;5056135;28;20036;-80
2024/01/05 03:27:39;;;;;;;6.75;1.45;;;24.80;60.10;;;;;;5055629;28;20024;-79
2024/01/05 03:30:07;;;;;;;5.35;1.23;;;24.90;60.20;;;;;;5054640;28;20143;-77
2024/01/05 03:32:35;;;;;;;7.43;1.90;;;24.90;60.40;;;;;;5055997;28;20021;-79
2024/01/05 03:35:02;;;;;;;5.47;1.38;;;25.10;60.20;;;;;;5055940;28;20017;-76
2024/01/05 03:37:30;;;;;;;5.50;1.40;;;25.10;58.90;;;;;;5048189;28;20383;-84
2024/01/05 03:39:57;;;;;;;5.13;1.42;;;25.00;58.90;;;;;;5036149;28;20550;-80
2024/01/05 03:42:24;;;;;;;4.65;1.63;;;24.90;57.70;;;;;;5035647;28;20021;-75
2024/01/05 03:44:52;;;;;;;7.32;1.30;;;24.80;58.30;;;;;;5035885;28;20037;-76
2024/01/05 03:47:19;;;;;;;4.38;0.90;;;24.70;59.10;;;;;;5035506;28;20029;-83
2024/01/05 03:49:47;;;;;;;5.22;1.38;;;24.70;59.50;;;;;;5041375;28;20518;-77
2024/01/05 03:52:14;;;;;;;5.72;1.10;;;24.60;58.90;;;;;;5037278;28;20380;-82
2024/01/05 03:54:41;;;;;;;4.10;1.08;;;24.50;59.70;;;;;;5034938;28;20025;-78
2024/01/05 03:57:09;;;;;;;5.40;1.20;;;24.50;60.70;;;;;;5045521;28;20113;-79
2024/01/05 03:59:36;;;;;;;6.90;1.40;;;24.40;60.20;;;;;;5035186;28;20476;-78
2024/01/05 04:02:05;;;;;;;8.02;1.42;;;24.40;60.80;;;;;;5034821;28;20120;-76
2024/01/05 04:04:32;;;;;;;4.22;1.23;;;24.40;60.70;;;;;;5037049;28;20037;-77
2024/01/05 04:07:03;;;;;;;6.53;1.30;;;24.40;59.40;;;;;;5039245;28;20856;-77
2024/01/05 04:09:31;;;;;;;4.22;1.13;;;24.30;60.00;;;;;;5034490;28;20018;-77
2024/01/05 04:11:58;;;;;;;4.95;1.20;;;24.30;61.20;;;;;;5041403;28;20040;-83
2024/01/05 04:14:26;;;;;;;6.28;1.27;;;24.40;61.40;;;;;;5035173;28;20375;-83
2024/01/05 04:16:53;;;;;;;4.55;1.17;;;24.40;60.50;;;;;;5034586;28;20029;-78
2024/01/05 04:19:22;;;;;;;4.22;1.00;;;24.50;60.80;;;;;;5036546;28;20029;-83
2024/01/05 04:21:50;;;;;;;3.78;1.00;;;24.50;59.60;;;;;;5033604;28;20148;-79
2024/01/05 04:24:17;;;;;;;4.03;1.05;;;24.70;60.20;;;;;;5035121;28;20025;-83
2024/01/05 04:26:45;;;;;;;3.25;1.10;;;24.80;60.60;;;;;;5034299;28;20041;-83
2024/01/05 04:29:15;;;;;;;2.75;1.10;;;24.80;59.80;;;;;;5033468;28;20635;-82
2024/01/05 04:31:43;;;;;;;5.47;1.10;;;24.90;59.40;;;;;;5039001;28;20090;-76
2024/01/05 04:34:10;;;;;;;8.63;1.17;;;25.00;59.20;;;;;;5055028;28;20025;-83
2024/01/05 04:36:39;;;;;;;8.15;1.38;;;25.10;59.80;;;;;;5043126;28;20087;-83
2024/01/05 04:39:06;;;;;;;4.68;1.23;;;25.10;60.20;;;;;;5034834;28;20075;-84
2024/01/05 04:41:33;;;;;;;4.95;1.27;;;25.10;59.90;;;;;;5028296;28;20061;-80
2024/01/05 04:44:03;;;;;;;7.65;1.50;;;25.10;59.80;;;;;;5037235;28;20504;-77
2024/01/05 04:46:31;;;;;;;6.45;1.80;;;25.10;59.70;;;;;;5034656;28;20397;-82
2024/01/05 04:48:58;;;;;;;5.32;1.60;;;25.00;59.10;;;;;;5037020;28;20028;-84
2024/01/05 04:51:26;;;;;;;6.13;1.42;;;24.90;59.40;;;;;;5033474;28;20447;-83
2024/01/05 04:53:54;;;;;;;3.83;1.05;;;24.90;59.10;;;;;;5032561;28;20060;-81
2024/01/05 04:56:21;;;;;;;5.05;1.08;;;24.90;59.70;;;;;;5036715;28;20171;-80
2024/01/05 04:58:49;;;;;;;4.75;1.35;;;24.90;60.00;;;;;;5024610;28;20436;-81
2024/01/05 05:01:16;;;;;;;10.95;1.92;;;24.90;60.20;;;;;;5032121;28;20030;-84
2024/01/05 05:03:45;;;;;;;6.22;1.52;;;24.90;59.40;;;;;;5042536;28;20041;-76
2024/01/05 05:06:12;;;;;;;7.53;1.70;;;25.10;59.00;;;;;;5039443;28;20044;-77
2024/01/05 05:08:39;;;;;;;6.38;1.63;;;25.00;58.50;;;;;;5032061;28;20034;-76
2024/01/05 05:11:07;;;;;;;5.75;1.40;;;25.00;58.90;;;;;;5043606;28;20049;-78
2024/01/05 05:13:35;;;;;;;4.68;1.40;;;25.00;58.10;;;;;;5033400;28;20040;-82
2024/01/05 05:16:02;;;;;;;6.72;1.55;;;25.00;58.10;;;;;;5032784;28;20026;-76
2024/01/05 05:18:29;;;;;;;7.15;1.80;;;25.10;58.70;;;;;;5034588;28;21748;-76
2024/01/05 05:20:57;;;;;;;4.28;1.30;;;25.10;58.70;;;;;;5034181;28;20021;-77
2024/01/05 05:23:24;;;;;;;4.60;1.33;;;25.20;58.60;;;;;;5031478;28;20389;-82
2024/01/05 05:25:52;;;;;;;4.85;1.20;;;25.10;58.00;;;;;;5037485;28;20032;-78
2024/01/05 05:28:19;;;;;;;6.32;1.60;;;25.10;58.20;;;;;;5029302;28;20040;-80
2024/01/05 05:30:46;;;;;;;4.75;1.55;;;25.10;58.00;;;;;;5036511;28;20029;-79
2024/01/05 05:33:14;;;;;;;7.82;1.80;;;25.10;58.10;;;;;;5040035;28;20395;-78
2024/01/05 05:35:41;;;;;;;7.72;1.50;;;25.10;58.20;;;;;;5033282;28;20026;-80
2024/01/05 05:38:08;;;;;;;6.15;1.48;;;25.10;57.00;;;;;;5032369;28;20498;-77
2024/01/05 05:40:36;;;;;;;3.72;1.55;;;25.20;57.30;;;;;;5032192;28;20392;-78
2024/01/05 05:43:03;;;;;;;6.55;2.83;;;25.20;57.20;;;;;;5021464;28;20033;-82
2024/01/05 05:45:31;;;;;;;3.40;1.00;;;25.30;57.20;;;;;;5016996;28;20597;-79
2024/01/05 05:47:59;;;;;;;5.28;1.20;;;25.30;56.90;;;;;;5022444;28;20489;-81
2024/01/05 05:50:26;;;;;;;3.47;1.08;;;25.30;56.80;;;;;;5013349;28;20077;-78
2024/01/05 05:52:54;;;;;;;5.95;1.60;;;25.30;57.10;;;;;;5032499;28;20063;-78
2024/01/05 05:55:22;;;;;;;4.68;1.20;;;25.40;57.50;;;;;;5045188;28;20028;-79
2024/01/05 05:57:50;;;;;;;4.20;1.20;;;25.50;57.20;;;;;;5034289;28;20037;-81
2024/01/05 06:00:17;;;;;;;5.10;1.20;;;25.50;56.50;;;;;;5029721;28;20032;-77
2024/01/05 06:02:46;;;;;;;5.40;1.20;;;25.50;55.10;;;;;;5043626;28;20020;-79
2024/01/05 06:05:13;;;;;;;5.28;1.30;;;25.50;55.60;;;;;;5030724;28;20053;-80
2024/01/05 06:07:43;;;;;;;3.42;1.10;;;25.50;54.00;;;;;;5044274;28;20040;-77
2024/01/05 06:10:11;;;;;;;4.75;0.95;;;25.50;55.20;;;;;;5049608;28;20017;-77
2024/01/05 06:12:38;;;;;;;4.13;1.15;;;25.50;55.20;;;;;;5035072;28;20428;-79
2024/01/05 06:15:07;;;;;;;5.30;1.35;;;25.50;54.90;;;;;;5031356;28;20046;-78
2024/01/05 06:17:34;;;;;;;6.47;1.08;;;25.50;54.10;;;;;;5036805;28;20053;-80
2024/01/05 06:20:01;;;;;;;5.32;1.17;;;25.50;54.30;;;;;;5028331;28;20479;-77
2024/01/05 06:22:29;;;;;;;7.15;1.35;;;25.50;54.90;;;;;;5039572;28;20051;-78
2024/01/05 06:24:56;;;;;;;2.90;0.90;;;25.50;55.20;;;;;;5032584;28;20029;-76
2024/01/05 06:27:23;;;;;;;3.42;1.13;;;25.50;54.90;;;;;;5033346;28;20042;-77
2024/01/05 06:29:51;;;;;;;3.83;1.25;;;25.50;54.80;;;;;;5029772;28;20504;-82
2024/01/05 06:32:18;;;;;;;7.00;1.45;;;25.60;55.60;;;;;;5030511;28;20065;-81
2024/01/05 06:34:45;;;;;;;3.55;1.15;;;25.60;56.00;;;;;;5015560;28;20101;-80
2024/01/05 06:37:13;;;;;;;5.30;1.10;;;25.60;55.40;;;;;;5034245;28;20029;-77
2024/01/05 06:39:40;;;;;;;3.17;1.35;;;25.60;55.80;;;;;;5026268;28;20028;-78
2024/01/05 06:42:07;;;;;;;6.82;2.15;;;25.60;56.20;;;;;;5033480;28;20024;-77
2024/01/05 06:44:35;;;;;;;6.82;1.50;;;25.50;55.30;;;;;;5025557;28;20466;-77
2024/01/05 06:47:02;;;;;;;5.50;1.35;;;25.40;55.60;;;;;;5012369;28;20077;-77
2024/01/05 06:49:29;;;;;;;4.95;1.17;;;25.30;55.40;;;;;;5012479;28;20022;-77
2024/01/05 06:51:57;;;;;;;2.85;1.00;;;25.30;55.50;;;;;;5012031;28;20072;-77
2024/01/05 06:54:24;;;;;;;2.95;1.00;;;25.30;55.80;;;;;;5012437;28;20041;-77
2024/01/05 06:56:52;;;;;;;6.38;1.33;;;25.30;56.20;;;;;;5012241;28;20026;-80
2024/01/05 06:59:20;;;;;;;5.20;1.30;;;25.20;55.90;;;;;;5035198;28;20155;-76
2024/01/05 07:01:48;;;;;;;8.57;1.65;;;25.20;55.90;;;;;;5051808;28;20036;-83
2024/01/05 07:04:15;;;;;;;4.63;1.40;;;25.00;55.50;;;;;;5051772;28;20037;-78
2024/01/05 07:06:43;;;;;;;6.68;1.27;;;25.00;56.30;;;;;;5050084;28;20036;-78
2024/01/05 07:09:13;;;;;;;4.43;1.23;;;24.90;55.50;;;;;;5049126;28;20017;-79
2024/01/05 07:11:41;;;;;;;3.55;1.20;;;24.70;56.40;;;;;;5051950;28;20036;-77
2024/01/05 07:14:08;;;;;;;5.72;1.30;;;24.70;56.80;;;;;;5042220;28;20104;-77
2024/01/05 07:16:35;;;;;;;6.82;1.33;;;24.60;58.10;;;;;;5032099;28;20101;-78
2024/01/05 07:19:03;;;;;;;6.80;1.33;;;24.60;57.70;;;;;;5030693;28;20076;-77
2024/01/05 07:21:30;;;;;;;5.32;1.10;;;24.50;58.10;;;;;;5031200;28;20562;-80
2024/01/05 07:23:58;;;;;;;7.65;1.40;;;24.50;58.40;;;;;;5020011;28;20030;-78
2024/01/05 07:26:25;;;;;;;4.70;1.25;;;24.60;58.70;;;;;;5030948;28;20087;-78
2024/01/05 07:28:53;;;;;;;5.13;1.33;;;24.70;57.80;;;;;;5031153;28;20452;-78
2024/01/05 07:31:23;;;;;;;2.35;0.90;;;24.70;57.40;;;;;;5032387;28;20121;-78
2024/01/05 07:33:51;;;;;;;5.35;1.23;;;24.80;58.00;;;;;;5035452;28;20044;-78
2024/01/05 07:36:19;;;;;;;4.38;1.20;;;24.80;56.40;;;;;;5034504;28;20026;-78
2024/01/05 07:38:46;;;;;;;4.47;1.33;;;24.80;56.90;;;;;;5045111;28;20032;-81
2024/01/05 07:41:17;;;;;;;6.55;1.10;;;24.90;57.10;;;;;;5047495;28;20033;-79
2024/01/05 07:43:44;;;;;;;5.88;1.02;;;24.90;57.00;;;;;;5041024;28;20052;-77
2024/01/05 07:46:12;;;;;;;6.45;1.73;;;24.90;57.10;;;;;;5052466;28;20450;-81
2024/01/05 07:48:42;;;;;;;7.95;1.67;;;24.90;57.50;;;;;;5055148;28;20070;-80
2024/01/05 07:51:10;;;;;;;6.47;1.55;;;24.90;58.20;;;;;;5043613;28;20036;-78
2024/01/05 07:53:38;;;;;;;9.07;1.60;;;24.90;57.60;;;;;;5035072;28;20350;-79
2024/01/05 07:56:06;;;;;;;6.63;1.65;;;24.90;58.50;;;;;;5035008;28;20032;-76
2024/01/05 07:58:33;;;;;;;7.00;1.25;;;24.90;58.00;;;;;;5045284;28;20056;-79
2024/01/05 08:01:01;;;;;;;6.38;1.40;;;24.80;58.10;;;;;;5055169;28;20095;-77
2024/01/05 08:03:29;;;;;;;5.43;1.42;;;24.80;57.60;;;;;;5053680;28;20043;-77
2024/01/05 08:05:56;;;;;;;7.25;1.60;;;24.80;58.30;;;;;;5053106;28;20040;-77
2024/01/05 08:08:23;;;;;;;4.70;1.00;;;24.70;57.70;;;;;;5054841;28;20037;-75
2024/01/05 08:10:51;;;;;;;7.22;1.35;;;24.70;58.10;;;;;;5054792;28;20025;-76
2024/01/05 08:13:23;;;;;;;5.97;1.00;;;24.60;59.20;;;;;;5037716;28;20041;-80
2024/01/05 08:15:50;;;;;;;5.05;1.05;;;24.60;58.60;;;;;;5034542;28;20096;-76
2024/01/05 08:18:18;;;;;;;5.10;0.95;;;24.50;58.20;;;;;;5034870;28;20461;-77
2024/01/05 08:20:46;;;;;;;8.23;1.48;;;24.40;58.30;;;;;;5050577;28;20108;-76
2024/01/05 08:23:14;;;;;;;5.63;1.13;;;24.30;58.50;;;;;;5050558;28;20068;-83
2024/01/05 08:25:41;;;;;;;2.40;0.93;;;24.30;58.60;;;;;;5022854;28;20018;-77
2024/01/05 08:28:09;;;;;;;5.68;1.30;;;24.20;59.10;;;;;;5046743;28;20099;-77
2024/01/05 08:30:36;;;;;;;6.82;1.10;;;24.10;59.30;;;;;;5041414;28;20107;-77
2024/01/05 08:33:04;;;;;;;2.67;1.20;;;24.10;59.90;;;;;;5034257;28;20558;-81
2024/01/05 08:35:31;;;;;;;6.03;1.50;;;24.00;59.70;;;;;;5034408;28;20030;-77
2024/01/05 08:37:58;;;;;;;6.05;1.23;;;23.80;59.60;;;;;;5046292;28;20056;-79
2024/01/05 08:40:28;;;;;;;6.82;1.67;;;23.80;60.30;;;;;;5053265;28;20502;-84
2024/01/05 08:42:55;;;;;;;4.13;1.25;;;23.70;60.40;;;;;;5030720;28;20162;-77
2024/01/05 08:45:23;;;;;;;4.68;1.05;;;23.70;60.90;;;;;;5040926;28;20029;-77
2024/01/05 08:47:52;;;;;;;3.42;1.00;;;23.60;61.00;;;;;;5040319;28;20037;-82
2024/01/05 08:50:19;;;;;;;9.00;1.23;;;23.60;60.70;;;;;;5033887;28;20465;-77
2024/01/05 08:52:48;;;;;;;5.00;0.98;;;23.50;61.10;;;;;;5033635;28;20030;-81
2024/01/05 08:55:19;;;;;;;3.38;1.13;;;23.50;61.50;;;;;;5034034;28;20377;-78
2024/01/05 08:57:49;;;;;;;4.70;1.10;;;23.40;61.70;;;;;;5049985;28;20112;-78
2024/01/05 09:00:18;;;;;;;7.68;1.25;;;23.40;61.90;;;;;;5048210;28;20378;-79
2024/01/05 09:02:46;;;;;;;4.90;1.45;;;23.40;62.50;;;;;;5033649;28;20515;-77
2024/01/05 09:05:13;;;;;;;3.58;1.00;;;23.30;62.00;;;;;;5033731;28;20037;-83
2024/01/05 09:07:41;;;;;;;5.18;1.80;;;23.30;62.70;;;;;;5037279;28;20029;-77
2024/01/05 09:10:08;;;;;;;2.70;1.20;;;23.30;61.80;;;;;;5053773;28;20021;-78
2024/01/05 09:12:37;;;;;;;4.53;1.25;;;23.30;61.50;;;;;;5053734;28;20027;-78
2024/01/05 09:15:05;;;;;;;4.15;1.70;;;23.20;62.10;;;;;;5053752;28;20108;-77
2024/01/05 09:17:32;;;;;;;6.38;1.40;;;23.20;62.20;;;;;;5054100;28;20032;-79
2024/01/05 09:20:00;;;;;;;7.70;1.90;;;23.20;62.00;;;;;;5037590;28;20045;-78
2024/01/05 09:22:27;;;;;;;5.18;1.52;;;23.10;61.80;;;;;;5033502;28;20033;-77
2024/01/05 09:24:54;;;;;;;7.30;2.58;;;23.10;61.80;;;;;;5033401;28;20029;-76
2024/01/05 09:27:22;;;;;;;6.53;2.28;;;23.00;61.90;;;;;;5041177;28;20412;-78
2024/01/05 09:29:49;;;;;;;7.63;1.40;;;23.00;62.10;;;;;;5042726;28;20036;-78
2024/01/05 09:32:17;;;;;;;4.35;1.30;;;22.90;62.00;;;;;;5023467;28;20105;-81
2024/01/05 09:34:45;;;;;;;6.53;2.22;;;22.90;62.10;;;;;;5031474;28;20083;-78
2024/01/05 09:37:12;;;;;;;5.95;2.15;;;22.80;62.30;;;;;;5035022;28;20022;-77
2024/01/05 09:39:40;;;;;;;8.13;1.45;;;22.80;62.90;;;;;;5034579;28;20603;-82
2024/01/05 09:42:08;;;;;;;6.70;1.58;;;22.80;63.10;;;;;;5030563;28;20017;-79
2024/01/05 09:44:36;;;;;;;4.93;1.13;;;22.80;63.40;;;;;;5034871;28;20029;-77
2024/01/05 09:47:06;;;;;;;5.22;1.25;;;22.80;63.90;;;;;;5043516;28;20783;-80
2024/01/05 09:49:36;;;;;;;6.07;1.30;;;22.80;63.70;;;;;;5036495;28;20458;-79
2024/01/05 09:52:03;;;;;;;7.72;1.50;;;22.80;63.80;;;;;;5039088;28;20030;-78
2024/01/05 09:54:30;;;;;;;8.02;1.15;;;22.80;64.20;;;;;;5034310;28;20021;-79
2024/01/05 09:56:58;;;;;;;7.20;1.10;;;22.80;63.70;;;;;;5029721;28;20029;-78
2024/01/05 09:59:26;;;;;;;4.72;1.23;;;22.70;63.60;;;;;;5032680;28;20029;-76
2024/01/05 10:01:54;;;;;;;6.57;1.20;;;22.70;64.00;;;;;;5025011;28;20029;-79
2024/01/05 10:04:23;;;;;;;7.88;1.45;;;22.60;63.80;;;;;;5031749;28;20049;-77
2024/01/05 10:07:01;;;;;;;5.68;1.17;;;22.60;63.60;;;;;;5042647;28;20043;-84
2024/01/05 10:09:31;;;;;;;5.47;1.10;;;22.60;64.20;;;;;;5044661;28;20025;-77
2024/01/05 10:11:59;;;;;;;3.85;1.05;;;22.60;63.90;;;;;;5045146;28;20041;-77
2024/01/05 10:14:27;;;;;;;6.25;1.52;;;22.50;63.90;;;;;;5052556;28;20373;-77
2024/01/05 10:17:13;;;;;;;6.68;1.50;;;22.50;64.30;;;;;;5052614;28;20021;-77
2024/01/05 10:19:41;;;;;;;7.93;1.40;;;22.50;64.50;;;;;;5052738;28;20112;-77
2024/01/05 10:22:14;;;;;;;7.18;1.50;;;22.50;64.10;;;;;;5052580;28;20025;-85
2024/01/05 10:24:42;;;;;;;3.58;1.20;;;22.40;64.40;;;;;;5052047;28;20375;-78
2024/01/05 10:27:11;;;;;;;3.65;1.10;;;22.40;64.30;;;;;;5026124;28;20827;-84
2024/01/05 10:29:43;;;;;;;8.13;1.63;;;22.40;64.80;;;;;;5032246;28;20022;-78
2024/01/05 10:32:21;;;;;;;8.23;1.50;;;22.40;64.60;;;;;;5036928;28;20429;-77
2024/01/05 10:34:51;;;;;;;3.85;1.38;;;22.40;64.60;;;;;;5053579;28;20029;-78
2024/01/05 10:37:21;;;;;;;4.57;1.45;;;22.30;65.60;;;;;;5043487;28;20030;-84
2024/01/05 10:39:56;;;;;;;2.65;1.10;;;22.30;64.90;;;;;;5029121;28;20076;-83
2024/01/05 10:42:30;;;;;;;2.40;1.10;;;22.30;65.80;;;;;;5032178;28;21130;-79
2024/01/05 10:44:58;;;;;;;4.82;1.33;;;22.40;66.50;;;;;;5040053;28;20274;-83
2024/01/05 10:47:31;;;;;;;6.03;1.30;;;22.30;66.60;;;;;;5040689;28;20507;-82
2024/01/05 10:49:59;;;;;;;8.80;1.50;;;22.40;67.40;;;;;;5049569;28;20056;-83
2024/01/05 10:52:32;;;;;;;5.13;1.40;;;22.30;66.50;;;;;;5044724;28;20029;-83
2024/01/05 10:55:02;;;;;;;8.75;1.40;;;22.30;67.50;;;;;;5031847;28;20051;-78
2024/01/05 10:57:30;;;;;;;4.10;1.15;;;22.30;67.00;;;;;;5037662;28;20128;-82
2024/01/05 10:59:58;;;;;;;7.55;1.75;;;22.30;66.90;;;;;;5016540;28;20528;-82
2024/01/05 11:02:40;;;;;;;7.20;1.80;;;22.30;66.70;;;;;;5029636;28;20050;-81
2024/01/05 11:05:14;;;;;;;6.65;2.00;;;22.30;66.80;;;;;;5029348;28;20041;-78
2024/01/05 11:07:43;;;;;;;9.05;2.20;;;22.30;67.00;;;;;;5028935;28;20506;-77
2024/01/05 11:10:28;;;;;;;8.18;2.10;;;22.20;66.40;;;;;;5043460;28;20029;-83
2024/01/05 11:13:16;;;;;;;16.13;2.30;;;22.20;65.90;;;;;;5048897;28;20067;-78
2024/01/05 11:15:44;;;;;;;7.97;1.65;;;22.10;65.50;;;;;;5038903;28;20361;-77
2024/01/05 11:18:27;;;;;;;3.67;1.48;;;22.10;65.80;;;;;;5038673;28;20021;-77
2024/01/05 11:21:12;;;;;;;4.47;1.20;;;22.00;65.70;;;;;;5035000;28;20499;-77
2024/01/05 11:23:42;;;;;;;8.40;1.65;;;22.00;65.40;;;;;;5026256;28;20021;-77
2024/01/05 11:26:31;;;;;;;6.38;1.25;;;21.90;65.00;;;;;;5038510;28;20030;-78
2024/01/05 11:28:58;;;;;;;6.53;1.20;;;21.90;65.60;;;;;;5037661;28;20026;-82
2024/01/05 11:31:47;;;;;;;3.60;1.10;;;21.80;66.00;;;;;;5043191;28;20033;-82
2024/01/05 11:34:36;;;;;;;5.70;1.20;;;21.80;67.70;;;;;;5043425;28;20029;-79
2024/01/05 11:37:06;;;;;;;6.10;1.52;;;21.80;65.90;;;;;;5036868;28;20495;-78
2024/01/05 11:40:03;;;;;;;4.35;1.23;;;21.80;66.40;;;;;;5044677;28;20029;-83
2024/01/05 11:42:33;;;;;;;;;;;21.80;67.70;;;;;;5038240;28;20037;-81
2024/01/05 11:45:03;;;;;;;5.43;1.20;;;21.80;67.70;;;;;;5044877;28;20319;-86
2024/01/05 11:47:44;;;;;;;4.13;1.05;;;21.80;66.90;;;;;;5040873;28;20037;-78
2024/01/05 11:50:33;;;;;;;2.85;1.10;;;21.80;66.50;;;;;;5045996;28;20025;-78
2024/01/05 11:53:11;;;;;;;4.13;1.20;;;21.80;66.90;;;;;;5029627;28;20034;-84
2024/01/05 11:55:44;;;;;;;3.97;1.33;;;21.80;66.90;;;;;;5047867;28;20061;-81
2024/01/05 11:58:18;;;;;;;5.07;1.58;;;21.80;67.90;;;;;;5035108;28;20104;-85
2024/01/05 12:00:47;;;;;;;5.53;1.40;;;21.90;67.20;;;;;;5034638;28;20025;-81
2024/01/05 12:03:20;;;;;;;6.85;1.63;;;21.90;67.40;;;;;;5017510;28;20037;-83
2024/01/05 12:06:04;;;;;;;4.70;1.58;;;21.90;67.20;;;;;;5020230;28;20053;-85
2024/01/05 12:08:33;;;;;;;6.78;1.50;;;21.90;67.10;;;;;;5034303;28;20032;-85
2024/01/05 12:11:03;;;;;;;6.22;1.35;;;21.90;67.10;;;;;;5053389;28;20036;-85
2024/01/05 12:13:33;;;;;;;5.47;1.20;;;21.90;67.20;;;;;;5054748;28;20063;-84
2024/01/05 12:16:05;;;;;;;6.65;1.48;;;22.00;67.00;;;;;;5040328;28;20057;-82
2024/01/05 12:18:41;;;;;;;4.93;1.13;;;22.00;66.60;;;;;;5033196;28;20048;-84
2024/01/05 12:21:10;;;;;;;4.40;1.45;;;22.00;66.70;;;;;;5048153;28;20028;-83
2024/01/05 12:23:38;;;;;;;4.93;1.20;;;21.90;66.30;;;;;;5054565;28;20032;-84
2024/01/05 12:26:09;;;;;;;3.72;1.13;;;21.90;66.70;;;;;;5044079;28;20380;-80
2024/01/05 12:28:41;;;;;;;3.22;1.05;;;21.90;67.40;;;;;;5034752;28;20441;-85
2024/01/05 12:31:10;;;;;;;6.20;1.25;;;22.00;68.00;;;;;;5048290;28;20140;-83
2024/01/05 12:33:39;;;;;;;3.80;1.10;;;22.00;67.20;;;;;;5038835;28;20116;-85
2024/01/05 12:36:12;;;;;;;9.20;1.60;;;22.00;67.90;;;;;;5044665;28;20037;-83
2024/01/05 12:38:40;;;;;;;4.78;1.38;;;22.00;67.30;;;;;;5041417;28;20022;-81
2024/01/05 12:41:20;;;;;;;3.13;1.20;;;22.00;67.80;;;;;;5043259;28;20044;-84
2024/01/05 12:43:51;;;;;;;5.80;1.23;;;22.10;68.30;;;;;;5052861;28;20029;-85
2024/01/05 12:46:19;;;;;;;7.15;1.40;;;22.10;68.30;;;;;;5051439;28;20029;-84
2024/01/05 12:48:47;;;;;;;5.03;1.15;;;22.10;68.30;;;;;;5047393;28;20165;-82
2024/01/05 12:51:20;;;;;;;3.90;1.10;;;22.10;67.70;;;;;;5046267;28;20033;-84
2024/01/05 12:53:57;;;;;;;7.13;1.27;;;22.00;67.80;;;;;;5049807;28;20380;-84